Clear Sky Current Weather (METAR) For Antalya Airport

All times on the weather descriptions are local

Observed at 00:20 - (12 mins ago)

Clear Sky

8°C

Clear Sky
Clouds:
Wind: 340° at 03 knots, varying from 320° to 020
Visibility: Greater than 10km
QNH: 1024
Dew Point: 4°C
Runway in Use: Likely Runways 36L/C/R

Sunrise Today: 06:47
Sunset Today: 16:42

Forecast Weather (TAF) For Antalya Airport

Issued at 02:00 - (1 day 1 hr ago)


Runway in Use: Unable to determine, wind is clam

Forecast valid until 02:00 on Sunday

METAR/TAF RAW METAR / TAF

LTAI 282220Z 34003KT 320V020 CAVOK 08/04 Q1024 NOSIG

Weather Widget

Put weather from any of our airports on your website with our weather widget.

Find Another Search

Airport Search


Please Wait Please Wait - Loading
Close
Close

Login

Username:

Password:

Remember Me:

Remember me on this computer

Forgotten your password? Get a reset password sent to your registered e-mail address

Close

User Private Message

Subject:

Message: